createdAt,value
2022-11-19T00:01:15.701Z,3.25
2022-11-19T00:03:46.590Z,3.17
2022-11-19T00:06:19.456Z,2.89
2022-11-19T00:08:46.529Z,2.65
2022-11-19T00:11:21.262Z,2.72
2022-11-19T00:13:50.092Z,2.48
2022-11-19T00:16:16.679Z,2.46
2022-11-19T00:18:43.319Z,2.80
2022-11-19T00:21:12.398Z,2.76
2022-11-19T00:23:40.180Z,2.64
2022-11-19T00:26:07.656Z,2.91
2022-11-19T00:28:34.824Z,2.93
2022-11-19T00:31:06.662Z,2.88
2022-11-19T00:33:33.707Z,2.47
2022-11-19T00:36:01.421Z,2.82
2022-11-19T00:38:29.354Z,2.60
2022-11-19T00:40:56.501Z,2.73
2022-11-19T00:43:23.194Z,2.99
2022-11-19T00:45:49.786Z,2.79
2022-11-19T00:48:16.493Z,2.63
2022-11-19T00:50:43.118Z,2.26
2022-11-19T00:53:09.710Z,2.44
2022-11-19T00:55:37.631Z,2.45
2022-11-19T00:58:04.278Z,2.75
2022-11-19T01:00:30.953Z,2.91
2022-11-19T01:02:58.075Z,2.71
2022-11-19T01:05:24.783Z,2.64
2022-11-19T01:07:53.413Z,2.33
2022-11-19T01:10:20.033Z,1.76
2022-11-19T01:12:46.616Z,1.80
2022-11-19T01:15:13.196Z,1.78
2022-11-19T01:17:39.776Z,1.53
2022-11-19T01:20:07.095Z,1.54
2022-11-19T01:22:33.791Z,1.14
2022-11-19T01:25:00.430Z,1.31
2022-11-19T01:27:27.024Z,1.60
2022-11-19T01:29:53.590Z,1.57
2022-11-19T01:32:20.254Z,1.31
2022-11-19T01:34:46.847Z,1.44
2022-11-19T01:37:13.405Z,1.50
2022-11-19T01:39:40.073Z,1.83
2022-11-19T01:42:06.711Z,1.76
2022-11-19T01:45:01.323Z,1.66
2022-11-19T01:47:28.075Z,1.74
2022-11-19T01:49:54.846Z,1.34
2022-11-19T01:52:22.359Z,1.05
2022-11-19T01:54:51.935Z,1.30
2022-11-19T01:57:19.494Z,0.78
2022-11-19T01:59:50.558Z,1.15
2022-11-19T02:02:19.006Z,1.22
2022-11-19T02:04:46.962Z,1.14
2022-11-19T02:07:14.260Z,1.39
2022-11-19T02:09:41.475Z,1.70
2022-11-19T02:12:43.707Z,2.03
2022-11-19T02:15:22.377Z,2.11
2022-11-19T02:17:57.966Z,2.37
2022-11-19T02:20:42.425Z,2.32
2022-11-19T02:23:39.539Z,2.31
2022-11-19T02:26:22.642Z,2.25
2022-11-19T02:29:08.372Z,2.13
2022-11-19T02:31:42.228Z,2.38
2022-11-19T02:34:18.846Z,2.38
2022-11-19T02:37:03.142Z,2.17
2022-11-19T02:39:43.635Z,2.32
2022-11-19T02:42:22.463Z,2.22
2022-11-19T02:44:55.081Z,2.65
2022-11-19T02:47:44.288Z,1.90
2022-11-19T02:50:42.528Z,1.12
2022-11-19T02:53:10.137Z,1.50
2022-11-19T02:55:38.176Z,1.13
2022-11-19T02:58:19.616Z,1.53
2022-11-19T03:00:50.005Z,1.80
2022-11-19T03:03:21.816Z,1.07
2022-11-19T03:05:53.563Z,0.61
2022-11-19T03:08:20.456Z,1.13
2022-11-19T03:10:59.369Z,1.65
2022-11-19T03:13:36.195Z,1.69
2022-11-19T03:16:08.889Z,1.91
2022-11-19T03:18:45.751Z,1.98
2022-11-19T03:21:30.419Z,2.36
2022-11-19T03:24:05.632Z,2.48
2022-11-19T03:27:03.577Z,2.36
2022-11-19T03:29:34.791Z,1.60
2022-11-19T03:32:09.328Z,1.27
2022-11-19T03:34:38.990Z,0.90
2022-11-19T03:37:08.797Z,1.10
2022-11-19T03:39:37.750Z,0.90
2022-11-19T03:42:09.458Z,1.40
2022-11-19T03:44:48.292Z,1.46
2022-11-19T03:47:20.457Z,1.25
2022-11-19T03:49:52.895Z,1.33
2022-11-19T03:52:20.960Z,1.69
2022-11-19T03:54:47.804Z,1.75
2022-11-19T03:57:18.346Z,1.95
2022-11-19T03:59:46.063Z,1.58
2022-11-19T04:02:14.385Z,2.06
2022-11-19T04:04:40.975Z,1.53
2022-11-19T04:07:09.873Z,1.39
2022-11-19T04:09:37.280Z,1.03
2022-11-19T04:12:04.394Z,1.20
2022-11-19T04:14:31.077Z,1.41
2022-11-19T04:16:57.719Z,1.35
2022-11-19T04:19:24.996Z,1.49
2022-11-19T04:21:51.825Z,1.88
2022-11-19T04:24:18.670Z,1.86
2022-11-19T04:26:45.257Z,1.91
2022-11-19T04:29:11.858Z,2.02
2022-11-19T04:31:38.421Z,1.91
2022-11-19T04:34:05.170Z,1.68
2022-11-19T04:36:31.787Z,1.75
2022-11-19T04:38:58.365Z,1.76
2022-11-19T04:41:25.047Z,1.65
2022-11-19T04:43:51.727Z,0.50
2022-11-19T04:46:18.312Z,0.60
2022-11-19T04:48:44.907Z,0.07
2022-11-19T04:51:11.553Z,0.19
2022-11-19T04:53:38.180Z,0.30
2022-11-19T04:56:05.321Z,0.60
2022-11-19T04:58:31.894Z,0.83
2022-11-19T05:00:58.512Z,0.47
2022-11-19T05:03:25.075Z,0.17
2022-11-19T05:05:51.649Z,0.57
2022-11-19T05:08:18.352Z,0.54
2022-11-19T05:10:45.446Z,-0.07
2022-11-19T05:13:12.073Z,-0.16
2022-11-19T05:15:38.765Z,0.24
2022-11-19T05:18:05.385Z,-0.11
2022-11-19T05:20:31.985Z,0.18
2022-11-19T05:22:58.559Z,-0.08
2022-11-19T05:25:25.168Z,0.14
2022-11-19T05:27:51.968Z,0.39
2022-11-19T05:30:18.813Z,0.39
2022-11-19T05:32:45.435Z,0.46
2022-11-19T05:35:12.061Z,0.80
2022-11-19T05:37:38.810Z,0.77
2022-11-19T05:40:05.994Z,0.82
2022-11-19T05:42:32.644Z,0.32
2022-11-19T05:44:59.244Z,0.75
2022-11-19T05:47:25.850Z,0.68
2022-11-19T05:49:52.427Z,0.60
2022-11-19T05:52:19.010Z,0.40
2022-11-19T05:54:45.604Z,0.73
2022-11-19T05:57:12.207Z,0.63
2022-11-19T05:59:43.596Z,0.82
2022-11-19T06:02:10.922Z,0.84
2022-11-19T06:04:37.601Z,0.88
2022-11-19T06:07:04.446Z,0.89
2022-11-19T06:09:31.095Z,0.99
2022-11-19T06:11:57.730Z,1.04
2022-11-19T06:14:25.936Z,1.19
2022-11-19T06:16:56.753Z,0.68
2022-11-19T06:19:24.279Z,0.68
2022-11-19T06:21:51.774Z,1.36
2022-11-19T06:24:19.355Z,1.57
2022-11-19T06:26:45.990Z,1.34
2022-11-19T06:29:16.795Z,0.82
2022-11-19T06:31:43.775Z,0.74
2022-11-19T06:34:11.144Z,0.52
2022-11-19T06:36:41.945Z,0.12
2022-11-19T06:39:11.726Z,0.37
2022-11-19T06:41:38.365Z,0.38
2022-11-19T06:44:04.935Z,0.41
2022-11-19T06:46:31.739Z,0.52
2022-11-19T06:48:58.384Z,0.68
2022-11-19T06:51:24.949Z,0.97
2022-11-19T06:53:51.695Z,1.06
2022-11-19T06:56:18.300Z,0.70
2022-11-19T06:58:44.926Z,0.37
2022-11-19T07:01:11.589Z,0.36
2022-11-19T07:03:38.179Z,0.48
2022-11-19T07:06:05.057Z,0.25
2022-11-19T07:08:35.509Z,0.50
2022-11-19T07:11:04.211Z,0.39
2022-11-19T07:13:30.785Z,0.37
2022-11-19T07:15:57.383Z,0.50
2022-11-19T07:18:23.965Z,0.45
2022-11-19T07:20:50.564Z,0.54
2022-11-19T07:23:17.142Z,0.41
2022-11-19T07:25:43.749Z,0.52
2022-11-19T07:28:10.423Z,0.49
2022-11-19T07:30:36.999Z,0.65
2022-11-19T07:33:03.602Z,0.50
2022-11-19T07:35:30.215Z,0.34
2022-11-19T07:37:56.781Z,0.57
2022-11-19T07:40:23.420Z,0.38
2022-11-19T07:42:50.018Z,0.60
2022-11-19T07:45:18.603Z,0.56
2022-11-19T07:47:45.208Z,0.52
2022-11-19T07:50:12.953Z,0.56
2022-11-19T07:52:39.598Z,0.54
2022-11-19T07:55:06.861Z,0.79
2022-11-19T07:57:33.426Z,0.65
2022-11-19T08:00:00.046Z,0.53
2022-11-19T08:02:26.755Z,0.34
2022-11-19T08:04:53.326Z,0.58
2022-11-19T08:07:20.015Z,0.93
2022-11-19T08:09:46.646Z,0.92
2022-11-19T08:12:13.252Z,1.23
2022-11-19T08:14:39.895Z,1.72
2022-11-19T08:17:06.471Z,1.50
2022-11-19T08:19:33.078Z,1.93
2022-11-19T08:21:59.653Z,2.54
2022-11-19T08:24:26.219Z,1.90
2022-11-19T08:26:52.857Z,1.45
2022-11-19T08:29:21.406Z,1.51
2022-11-19T08:31:48.831Z,1.62
2022-11-19T08:34:16.549Z,1.49
2022-11-19T08:36:43.840Z,1.48
2022-11-19T08:39:10.941Z,1.64
2022-11-19T08:41:37.522Z,1.37
2022-11-19T08:44:04.226Z,1.31
2022-11-19T08:46:30.904Z,1.69
2022-11-19T08:48:57.508Z,1.83
2022-11-19T08:51:24.197Z,1.78
2022-11-19T08:53:54.086Z,1.61
2022-11-19T08:56:21.309Z,1.87
2022-11-19T08:58:48.140Z,1.98
2022-11-19T09:01:16.424Z,1.91
2022-11-19T09:03:43.868Z,2.06
2022-11-19T09:06:11.602Z,1.89
2022-11-19T09:08:39.368Z,2.08
2022-11-19T09:11:15.282Z,2.87
2022-11-19T09:13:42.567Z,3.22
2022-11-19T09:16:10.055Z,3.20
2022-11-19T09:18:37.723Z,3.43
2022-11-19T09:21:05.877Z,3.21
2022-11-19T09:23:32.484Z,3.21
2022-11-19T09:26:11.771Z,2.59
2022-11-19T09:28:38.472Z,2.50
2022-11-19T09:31:09.064Z,2.72
2022-11-19T09:33:37.661Z,2.85
2022-11-19T09:36:04.990Z,2.84
2022-11-19T09:38:31.603Z,2.64
2022-11-19T09:41:11.857Z,2.54
2022-11-19T09:44:06.470Z,2.57
2022-11-19T09:46:44.681Z,3.10
2022-11-19T09:49:17.443Z,3.57
2022-11-19T09:51:53.303Z,3.74
2022-11-19T09:54:22.769Z,3.71
2022-11-19T09:56:54.365Z,3.77
2022-11-19T09:59:39.660Z,3.35
2022-11-19T10:02:22.988Z,3.55
2022-11-19T10:04:51.295Z,3.47
2022-11-19T10:07:38.852Z,3.54
2022-11-19T10:10:22.415Z,3.64
2022-11-19T10:13:10.863Z,3.24
2022-11-19T10:15:56.308Z,3.30
2022-11-19T10:18:50.477Z,3.47
2022-11-19T10:21:29.019Z,3.20
2022-11-19T10:24:02.560Z,3.38
2022-11-19T10:26:37.327Z,3.12
2022-11-19T10:29:17.984Z,2.97
2022-11-19T10:31:47.284Z,3.04
2022-11-19T10:34:24.808Z,3.00
2022-11-19T10:37:15.173Z,2.83
2022-11-19T10:39:52.911Z,3.13
2022-11-19T10:42:27.755Z,3.16
2022-11-19T10:45:03.546Z,3.34
2022-11-19T10:47:37.688Z,2.95
2022-11-19T10:50:09.868Z,3.00
2022-11-19T10:52:51.948Z,3.80
2022-11-19T10:55:38.045Z,4.01
2022-11-19T10:58:12.313Z,4.00
2022-11-19T11:00:41.545Z,3.90
2022-11-19T11:03:38.408Z,3.95
2022-11-19T11:06:06.885Z,3.77
2022-11-19T11:08:33.920Z,4.08
2022-11-19T11:11:01.380Z,4.27
2022-11-19T11:13:34.050Z,4.13
2022-11-19T11:16:10.572Z,3.80
2022-11-19T11:18:39.120Z,3.42
2022-11-19T11:21:10.999Z,4.24
2022-11-19T11:23:50.853Z,4.55
2022-11-19T11:26:26.584Z,4.37
2022-11-19T11:28:56.214Z,4.45
2022-11-19T11:31:43.661Z,4.20
2022-11-19T11:34:33.574Z,3.62
2022-11-19T11:37:03.536Z,3.75
2022-11-19T11:39:35.119Z,3.99
2022-11-19T11:42:06.620Z,4.18
2022-11-19T11:44:37.228Z,3.92
2022-11-19T11:47:36.748Z,3.89
2022-11-19T11:50:26.228Z,3.37
2022-11-19T11:52:55.951Z,3.13
2022-11-19T11:55:25.217Z,3.41
2022-11-19T11:58:00.332Z,3.98
2022-11-19T12:00:32.056Z,3.94
2022-11-19T12:03:03.419Z,3.94
2022-11-19T12:05:39.394Z,3.77
2022-11-19T12:08:39.559Z,3.65
2022-11-19T12:11:16.275Z,3.64
2022-11-19T12:14:00.773Z,3.53
2022-11-19T12:16:34.576Z,4.22
2022-11-19T12:19:09.875Z,4.19
2022-11-19T12:21:56.618Z,4.19
2022-11-19T12:24:48.886Z,4.02
2022-11-19T12:27:36.225Z,4.23
2022-11-19T12:30:19.581Z,4.36
2022-11-19T12:32:49.153Z,4.63
2022-11-19T12:35:28.096Z,4.74
2022-11-19T12:38:19.540Z,4.82
2022-11-19T12:41:21.411Z,4.70
2022-11-19T12:43:58.310Z,4.60
2022-11-19T12:46:24.960Z,4.66
2022-11-19T12:49:19.345Z,4.89
2022-11-19T12:51:46.138Z,5.24
2022-11-19T12:54:37.496Z,5.29
2022-11-19T12:57:14.370Z,5.34
2022-11-19T13:00:04.425Z,5.63
2022-11-19T13:02:40.448Z,5.16
2022-11-19T13:05:15.064Z,5.21
2022-11-19T13:07:51.310Z,5.80
2022-11-19T13:10:28.982Z,5.69
2022-11-19T13:12:58.102Z,5.82
2022-11-19T13:15:50.454Z,5.11
2022-11-19T13:18:19.507Z,5.66
2022-11-19T13:20:53.363Z,5.55
2022-11-19T13:23:28.920Z,5.59
2022-11-19T13:26:00.809Z,5.73
2022-11-19T13:28:42.526Z,6.12
2022-11-19T13:31:23.792Z,5.94
2022-11-19T13:34:22.240Z,5.96
2022-11-19T13:37:16.895Z,6.04
2022-11-19T13:40:10.171Z,5.97
2022-11-19T13:42:36.872Z,5.92
2022-11-19T13:45:04.093Z,5.36
2022-11-19T13:47:39.148Z,5.52
2022-11-19T13:50:18.816Z,5.69
2022-11-19T13:53:13.560Z,5.83
2022-11-19T13:55:42.083Z,5.83
2022-11-19T13:58:16.358Z,5.57
2022-11-19T14:01:02.943Z,5.57
2022-11-19T14:04:05.574Z,5.29
2022-11-19T14:07:09.828Z,5.19
2022-11-19T14:09:36.419Z,5.47
2022-11-19T14:12:40.083Z,5.19
2022-11-19T14:15:24.545Z,5.08
2022-11-19T14:18:18.096Z,5.01
2022-11-19T14:20:45.726Z,4.83
2022-11-19T14:23:41.230Z,4.66
2022-11-19T14:26:08.044Z,4.80
2022-11-19T14:28:50.377Z,4.85
2022-11-19T14:31:19.265Z,4.65
2022-11-19T14:33:48.721Z,4.54
2022-11-19T14:36:45.651Z,4.71
2022-11-19T14:39:42.644Z,4.71
2022-11-19T14:42:19.341Z,4.35
2022-11-19T14:44:47.090Z,4.28
2022-11-19T14:47:22.814Z,4.35
2022-11-19T14:49:56.158Z,4.43
2022-11-19T14:52:27.192Z,4.43
2022-11-19T14:54:57.351Z,3.86
2022-11-19T14:57:23.883Z,3.97
2022-11-19T14:59:54.176Z,3.71
2022-11-19T15:02:25.015Z,3.55
2022-11-19T15:05:12.613Z,3.47
2022-11-19T15:07:52.907Z,3.76
2022-11-19T15:10:33.574Z,3.67
2022-11-19T15:13:19.951Z,4.08
2022-11-19T15:15:50.687Z,3.93
2022-11-19T15:18:40.080Z,3.95
2022-11-19T15:21:32.171Z,3.91
2022-11-19T15:24:26.333Z,3.70
2022-11-19T15:27:17.796Z,3.24
2022-11-19T15:30:06.243Z,3.39
2022-11-19T15:32:50.595Z,3.56
2022-11-19T15:35:17.109Z,3.24
2022-11-19T15:38:20.485Z,3.06
2022-11-19T15:40:51.512Z,3.12
2022-11-19T15:43:24.345Z,3.08
2022-11-19T15:46:17.130Z,2.87
2022-11-19T15:49:05.335Z,3.05
2022-11-19T15:51:49.954Z,3.27
2022-11-19T15:54:16.556Z,3.43
2022-11-19T15:56:50.394Z,3.23
2022-11-19T15:59:20.188Z,3.12
2022-11-19T16:01:57.743Z,2.91
2022-11-19T16:04:32.253Z,3.02
2022-11-19T16:06:58.894Z,3.31
2022-11-19T16:09:26.046Z,3.20
2022-11-19T16:11:53.164Z,3.12
2022-11-19T16:14:25.810Z,3.16
2022-11-19T16:16:52.385Z,3.21
2022-11-19T16:19:19.293Z,3.00
2022-11-19T16:21:53.431Z,2.84
2022-11-19T16:24:21.548Z,2.84
2022-11-19T16:26:48.769Z,2.66
2022-11-19T16:29:21.321Z,2.56
2022-11-19T16:31:50.572Z,2.54
2022-11-19T16:34:29.832Z,2.33
2022-11-19T16:36:56.639Z,2.68
2022-11-19T16:39:26.281Z,2.44
2022-11-19T16:41:55.671Z,2.48
2022-11-19T16:44:28.534Z,2.61
2022-11-19T16:46:55.903Z,2.29
2022-11-19T16:49:33.238Z,2.53
2022-11-19T16:51:59.927Z,2.39
2022-11-19T16:54:49.081Z,2.21
2022-11-19T16:57:22.399Z,2.42
2022-11-19T17:00:01.916Z,2.04
2022-11-19T17:02:31.871Z,2.42
2022-11-19T17:05:07.429Z,2.16
2022-11-19T17:07:35.001Z,2.15
2022-11-19T17:10:09.829Z,2.10
2022-11-19T17:12:37.342Z,2.10
2022-11-19T17:15:36.180Z,2.05
2022-11-19T17:18:27.114Z,1.83
2022-11-19T17:21:02.705Z,1.90
2022-11-19T17:23:36.822Z,1.89
2022-11-19T17:26:06.478Z,2.31
2022-11-19T17:28:37.199Z,2.05
2022-11-19T17:31:24.672Z,1.99
2022-11-19T17:33:53.278Z,1.98
2022-11-19T17:36:19.966Z,2.04
2022-11-19T17:38:46.534Z,2.16
2022-11-19T17:41:16.093Z,2.12
2022-11-19T17:43:42.871Z,2.15
2022-11-19T17:46:09.922Z,2.03
2022-11-19T17:48:40.432Z,2.23
2022-11-19T17:51:10.876Z,2.16
2022-11-19T17:53:37.459Z,1.85
2022-11-19T17:56:04.734Z,1.64
2022-11-19T17:58:31.388Z,1.78
2022-11-19T18:00:57.968Z,2.05
2022-11-19T18:03:24.606Z,1.95
2022-11-19T18:05:54.218Z,1.81
2022-11-19T18:08:20.787Z,1.47
2022-11-19T18:10:47.564Z,1.63
2022-11-19T18:13:20.738Z,1.76
2022-11-19T18:15:47.322Z,1.74
2022-11-19T18:18:13.905Z,1.67
2022-11-19T18:20:40.562Z,1.74
2022-11-19T18:23:07.958Z,1.47
2022-11-19T18:25:34.651Z,1.99
2022-11-19T18:28:01.218Z,1.86
2022-11-19T18:30:27.822Z,1.20
2022-11-19T18:32:54.471Z,1.31
2022-11-19T18:35:21.724Z,1.56
2022-11-19T18:37:48.779Z,1.79
2022-11-19T18:40:15.859Z,1.62
2022-11-19T18:42:42.978Z,1.79
2022-11-19T18:45:10.116Z,1.69
2022-11-19T18:47:36.691Z,1.55
2022-11-19T18:50:03.445Z,1.55
2022-11-19T18:52:30.170Z,1.44
2022-11-19T18:54:56.756Z,1.46
2022-11-19T18:57:23.354Z,1.47
2022-11-19T18:59:49.945Z,1.49
2022-11-19T19:02:16.581Z,1.50
2022-11-19T19:04:46.020Z,1.88
2022-11-19T19:07:14.988Z,1.55
2022-11-19T19:09:41.598Z,1.50
2022-11-19T19:12:12.704Z,1.48
2022-11-19T19:14:40.413Z,1.34
2022-11-19T19:17:07.899Z,1.42
2022-11-19T19:19:34.507Z,1.02
2022-11-19T19:22:01.087Z,1.29
2022-11-19T19:24:27.690Z,1.34
2022-11-19T19:26:54.368Z,1.51
2022-11-19T19:29:21.262Z,1.48
2022-11-19T19:31:48.193Z,1.72
2022-11-19T19:34:14.773Z,1.48
2022-11-19T19:36:46.434Z,1.75
2022-11-19T19:39:17.247Z,1.71
2022-11-19T19:41:43.918Z,1.79
2022-11-19T19:44:10.568Z,1.50
2022-11-19T19:46:37.176Z,1.36
2022-11-19T19:49:03.823Z,1.26
2022-11-19T19:51:30.497Z,1.16
2022-11-19T19:53:57.843Z,1.33
2022-11-19T19:56:27.777Z,1.38
2022-11-19T19:58:55.697Z,1.39
2022-11-19T20:01:24.901Z,1.35
2022-11-19T20:03:54.744Z,1.64
2022-11-19T20:06:23.550Z,1.38
2022-11-19T20:08:50.292Z,1.42
2022-11-19T20:11:19.418Z,1.36
2022-11-19T20:13:46.081Z,1.47
2022-11-19T20:16:18.274Z,1.50
2022-11-19T20:18:46.597Z,1.46
2022-11-19T20:21:15.959Z,1.91
2022-11-19T20:23:43.442Z,1.60
2022-11-19T20:26:10.853Z,1.32
2022-11-19T20:28:38.433Z,1.47
2022-11-19T20:31:10.073Z,1.47
2022-11-19T20:33:37.400Z,1.30
2022-11-19T20:36:05.218Z,1.52
2022-11-19T20:38:32.039Z,1.69
2022-11-19T20:41:01.164Z,1.56
2022-11-19T20:43:29.292Z,1.81
2022-11-19T20:46:06.997Z,1.52
2022-11-19T20:48:33.579Z,1.69
2022-11-19T20:51:00.175Z,1.34
2022-11-19T20:53:26.771Z,1.44
2022-11-19T20:56:05.087Z,1.64
2022-11-19T20:58:32.707Z,1.51
2022-11-19T21:01:05.779Z,1.42
2022-11-19T21:03:33.629Z,1.36
2022-11-19T21:06:02.304Z,1.62
2022-11-19T21:08:31.250Z,1.86
2022-11-19T21:11:03.699Z,1.68
2022-11-19T21:13:30.772Z,1.44
2022-11-19T21:15:58.484Z,1.59
2022-11-19T21:18:26.261Z,1.36
2022-11-19T21:20:52.995Z,1.44
2022-11-19T21:23:19.601Z,1.36
2022-11-19T21:25:46.189Z,1.08
2022-11-19T21:28:12.883Z,1.22
2022-11-19T21:30:39.936Z,1.02
2022-11-19T21:33:06.496Z,0.96
2022-11-19T21:35:33.075Z,1.21
2022-11-19T21:37:59.707Z,1.42
2022-11-19T21:40:26.307Z,1.21
2022-11-19T21:42:52.900Z,1.12
2022-11-19T21:45:19.490Z,1.25
2022-11-19T21:47:46.123Z,1.00
2022-11-19T21:50:12.727Z,0.84
2022-11-19T21:52:39.317Z,1.00
2022-11-19T21:55:06.225Z,1.32
2022-11-19T21:57:32.815Z,1.02
2022-11-19T21:59:59.405Z,1.50
2022-11-19T22:02:26.074Z,1.53
2022-11-19T22:04:52.649Z,1.18
2022-11-19T22:07:19.291Z,0.93
2022-11-19T22:09:46.043Z,0.86
2022-11-19T22:12:12.654Z,1.34
2022-11-19T22:14:39.218Z,1.31
2022-11-19T22:17:05.860Z,0.74
2022-11-19T22:19:32.451Z,0.83
2022-11-19T22:21:59.039Z,0.79
2022-11-19T22:24:25.684Z,1.05
2022-11-19T22:26:52.266Z,1.10
2022-11-19T22:29:19.239Z,1.18
2022-11-19T22:31:46.133Z,1.20
2022-11-19T22:34:13.256Z,1.41
2022-11-19T22:36:40.090Z,0.98
2022-11-19T22:39:06.696Z,0.86
2022-11-19T22:41:33.271Z,0.59
2022-11-19T22:43:59.997Z,0.60
2022-11-19T22:46:26.653Z,0.50
2022-11-19T22:48:53.267Z,0.55
2022-11-19T22:51:22.139Z,0.56
2022-11-19T22:53:50.306Z,0.58
2022-11-19T22:56:19.770Z,0.57
2022-11-19T22:58:47.797Z,0.54
2022-11-19T23:01:19.719Z,0.87
2022-11-19T23:03:46.556Z,1.12
2022-11-19T23:06:13.937Z,0.74
2022-11-19T23:08:40.524Z,0.54
2022-11-19T23:11:08.179Z,0.25
2022-11-19T23:13:37.098Z,0.11
2022-11-19T23:16:10.148Z,0.48
2022-11-19T23:18:48.690Z,0.61
2022-11-19T23:21:18.853Z,0.78
2022-11-19T23:23:45.622Z,0.63
2022-11-19T23:26:14.501Z,0.09
2022-11-19T23:28:41.557Z,0.31
2022-11-19T23:31:13.506Z,0.25
2022-11-19T23:33:40.421Z,0.02
2022-11-19T23:36:12.730Z,0.21
2022-11-19T23:38:40.047Z,0.52
2022-11-19T23:41:08.868Z,0.88
2022-11-19T23:43:35.833Z,1.38
2022-11-19T23:46:14.639Z,1.15
2022-11-19T23:48:43.655Z,0.97
2022-11-19T23:51:21.736Z,0.86
2022-11-19T23:53:49.266Z,0.55
2022-11-19T23:56:17.551Z,0.43
2022-11-19T23:58:44.198Z,0.35
